Heidrick, KY (40949)

6:06 PM EDT on July 28, 2016 (GMT -0400)
Mackey Bend | | Change Station

Elev 1010 ft 36.81 °N, 83.96 °W | Updated 4 minutes ago

Heavy Rain
Heavy Rain Mist
72.5 °F
Feels Like 72.5 °F
N
0.0
Wind Variable Wind from ENE

Today
High -- | Low -- °F
--% Chance of Precip.
Yesterday
High -- | Low -- °F
Precip. -- in
Pressure 29.90 in
Visibility 3.0 miles
Clouds Mostly Cloudy 700 ft
Mostly Cloudy 8500 ft
Overcast 11000 ft
Dew Point 72 °F
Humidity 99%
Rainfall 1.71 in
Snow Depth Not available.
6:38 AM 8:45 PM
Waning Crescent, 28% visible
METAR KLOZ 282153Z AUTO 00000KT 3SM +RA BR BKN007 BKN085 OVC110 22/20 A2993 RMK AO2 LTG DSNT SE AND S SLP123 P0019 T02170200
Pressure 29.90 in
Visibility 3.0 miles
Clouds Mostly Cloudy 700 ft
Mostly Cloudy 8500 ft
Overcast 11000 ft
Dew Point 72 °F
Humidity 99%
Rainfall 1.71 in
Snow Depth Not available.
6:38 AM 8:45 PM
Waning Crescent, 28% visible
METAR KLOZ 282153Z AUTO 00000KT 3SM +RA BR BKN007 BKN085 OVC110 22/20 A2993 RMK AO2 LTG DSNT SE AND S SLP123 P0019 T02170200

10-Day Weather Forecast

Almanac

Astronomy

Jul. 28, 2016 Rise Set
Actual Time
Civil Twilight
Nautical Twilight
Astronomical Twilight
Moon
Length of Visible Light
Length of Day
Tomorrow will be .
, % of the Moon is Illuminated

Today's Extremes

State Highs State Lows

Community

WunderPhotos

Upload Photos

1,928,216 photos uploaded!

WunderBlog® & News

Nearby

Air Quality

  Air Quality AQ Index Pollutant
Not available.

Snow Depth

Station Depth Elevation

Earthquake Activity

City Distance Mag. Time & Date
Minimum magnitude displayed is 2.5.

Coastal Water Temperatures

Place Temperature

Stations

Nearby Weather Stations

Station Location Temp. Windchill Dew Point Humidity Wind Precip. Elev Updated Type
                   

Watches & Warnings

There are currently no watches in effect.